sensor_id;sensor_type;location;lat;lon;timestamp;P1;durP1;ratioP1;P2;durP2;ratioP2
23573;SDS011;11965;53.640;10.050;2023-03-14T00:00:07;3.91;;;3.88;;
23573;SDS011;11965;53.640;10.050;2023-03-14T00:02:35;3.69;;;3.69;;
23573;SDS011;11965;53.640;10.050;2023-03-14T00:05:03;3.82;;;3.82;;
23573;SDS011;11965;53.640;10.050;2023-03-14T00:07:33;3.56;;;3.54;;
23573;SDS011;11965;53.640;10.050;2023-03-14T00:10:01;3.97;;;3.92;;
23573;SDS011;11965;53.640;10.050;2023-03-14T00:12:29;4.10;;;4.05;;
23573;SDS011;11965;53.640;10.050;2023-03-14T00:14:57;3.72;;;3.66;;
23573;SDS011;11965;53.640;10.050;2023-03-14T00:17:25;3.74;;;3.72;;
23573;SDS011;11965;53.640;10.050;2023-03-14T00:19:52;3.55;;;3.53;;
23573;SDS011;11965;53.640;10.050;2023-03-14T00:22:21;3.80;;;3.78;;
23573;SDS011;11965;53.640;10.050;2023-03-14T00:24:48;3.62;;;3.61;;
23573;SDS011;11965;53.640;10.050;2023-03-14T00:27:15;3.94;;;3.94;;
23573;SDS011;11965;53.640;10.050;2023-03-14T00:29:42;3.64;;;3.64;;
23573;SDS011;11965;53.640;10.050;2023-03-14T00:32:09;3.98;;;3.98;;
23573;SDS011;11965;53.640;10.050;2023-03-14T00:34:39;4.21;;;4.15;;
23573;SDS011;11965;53.640;10.050;2023-03-14T00:37:06;4.43;;;4.37;;
23573;SDS011;11965;53.640;10.050;2023-03-14T00:39:34;4.22;;;4.16;;
23573;SDS011;11965;53.640;10.050;2023-03-14T00:42:01;4.35;;;4.28;;
23573;SDS011;11965;53.640;10.050;2023-03-14T00:44:28;4.14;;;4.07;;
23573;SDS011;11965;53.640;10.050;2023-03-14T00:46:55;3.89;;;3.89;;
23573;SDS011;11965;53.640;10.050;2023-03-14T00:49:22;3.94;;;3.90;;
23573;SDS011;11965;53.640;10.050;2023-03-14T00:51:50;4.42;;;4.28;;
23573;SDS011;11965;53.640;10.050;2023-03-14T00:54:17;3.96;;;3.79;;
23573;SDS011;11965;53.640;10.050;2023-03-14T00:56:46;4.20;;;4.01;;
23573;SDS011;11965;53.640;10.050;2023-03-14T00:59:14;4.14;;;3.92;;
23573;SDS011;11965;53.640;10.050;2023-03-14T01:01:42;4.44;;;4.16;;
23573;SDS011;11965;53.640;10.050;2023-03-14T01:04:11;4.16;;;3.93;;
23573;SDS011;11965;53.640;10.050;2023-03-14T01:06:38;4.07;;;3.83;;
23573;SDS011;11965;53.640;10.050;2023-03-14T01:09:05;4.18;;;3.96;;
23573;SDS011;11965;53.640;10.050;2023-03-14T01:11:33;4.13;;;3.87;;
23573;SDS011;11965;53.640;10.050;2023-03-14T01:14:02;4.26;;;3.92;;
23573;SDS011;11965;53.640;10.050;2023-03-14T01:16:31;4.13;;;3.82;;
23573;SDS011;11965;53.640;10.050;2023-03-14T01:19:01;4.77;;;4.41;;
23573;SDS011;11965;53.640;10.050;2023-03-14T01:21:30;4.58;;;4.14;;
23573;SDS011;11965;53.640;10.050;2023-03-14T01:23:59;4.82;;;4.27;;
23573;SDS011;11965;53.640;10.050;2023-03-14T01:26:29;4.81;;;4.28;;
23573;SDS011;11965;53.640;10.050;2023-03-14T01:28:58;4.68;;;4.24;;
23573;SDS011;11965;53.640;10.050;2023-03-14T01:31:28;4.41;;;4.02;;
23573;SDS011;11965;53.640;10.050;2023-03-14T01:33:55;4.55;;;4.05;;
23573;SDS011;11965;53.640;10.050;2023-03-14T01:36:22;4.70;;;4.20;;
23573;SDS011;11965;53.640;10.050;2023-03-14T01:38:49;4.53;;;4.05;;
23573;SDS011;11965;53.640;10.050;2023-03-14T01:41:18;4.52;;;4.07;;
23573;SDS011;11965;53.640;10.050;2023-03-14T01:43:47;4.07;;;3.77;;
23573;SDS011;11965;53.640;10.050;2023-03-14T01:46:23;4.29;;;4.01;;
23573;SDS011;11965;53.640;10.050;2023-03-14T01:49:02;3.93;;;3.63;;
23573;SDS011;11965;53.640;10.050;2023-03-14T01:51:37;4.14;;;3.79;;
23573;SDS011;11965;53.640;10.050;2023-03-14T01:54:12;3.88;;;3.58;;
23573;SDS011;11965;53.640;10.050;2023-03-14T01:56:45;4.42;;;4.00;;
23573;SDS011;11965;53.640;10.050;2023-03-14T01:59:18;4.16;;;3.82;;
23573;SDS011;11965;53.640;10.050;2023-03-14T02:01:47;3.93;;;3.62;;
23573;SDS011;11965;53.640;10.050;2023-03-14T02:04:18;4.24;;;4.03;;
23573;SDS011;11965;53.640;10.050;2023-03-14T02:06:48;4.00;;;3.88;;
23573;SDS011;11965;53.640;10.050;2023-03-14T02:09:22;3.86;;;3.74;;
23573;SDS011;11965;53.640;10.050;2023-03-14T02:11:50;3.72;;;3.60;;
23573;SDS011;11965;53.640;10.050;2023-03-14T02:14:38;4.06;;;3.92;;
23573;SDS011;11965;53.640;10.050;2023-03-14T02:17:33;3.80;;;3.67;;
23573;SDS011;11965;53.640;10.050;2023-03-14T02:20:21;3.99;;;3.85;;
23573;SDS011;11965;53.640;10.050;2023-03-14T02:22:58;4.06;;;3.92;;
23573;SDS011;11965;53.640;10.050;2023-03-14T02:25:30;4.00;;;3.84;;
23573;SDS011;11965;53.640;10.050;2023-03-14T02:28:07;3.89;;;3.72;;
23573;SDS011;11965;53.640;10.050;2023-03-14T02:30:36;4.39;;;4.23;;
23573;SDS011;11965;53.640;10.050;2023-03-14T02:33:05;4.06;;;3.87;;
23573;SDS011;11965;53.640;10.050;2023-03-14T02:35:36;4.47;;;4.29;;
23573;SDS011;11965;53.640;10.050;2023-03-14T02:38:08;4.28;;;4.12;;
23573;SDS011;11965;53.640;10.050;2023-03-14T02:40:44;4.10;;;4.01;;
23573;SDS011;11965;53.640;10.050;2023-03-14T02:43:13;4.07;;;4.01;;
23573;SDS011;11965;53.640;10.050;2023-03-14T02:45:45;4.23;;;4.21;;
23573;SDS011;11965;53.640;10.050;2023-03-14T02:48:18;4.18;;;4.13;;
23573;SDS011;11965;53.640;10.050;2023-03-14T02:50:50;4.28;;;4.21;;
23573;SDS011;11965;53.640;10.050;2023-03-14T02:53:23;4.28;;;4.24;;
23573;SDS011;11965;53.640;10.050;2023-03-14T02:55:55;4.32;;;4.31;;
23573;SDS011;11965;53.640;10.050;2023-03-14T02:58:25;4.36;;;4.36;;
23573;SDS011;11965;53.640;10.050;2023-03-14T03:00:59;4.16;;;4.16;;
23573;SDS011;11965;53.640;10.050;2023-03-14T03:03:26;4.36;;;4.36;;
23573;SDS011;11965;53.640;10.050;2023-03-14T03:05:54;4.31;;;4.31;;
23573;SDS011;11965;53.640;10.050;2023-03-14T03:08:24;4.68;;;4.67;;
23573;SDS011;11965;53.640;10.050;2023-03-14T03:10:54;4.58;;;4.56;;
23573;SDS011;11965;53.640;10.050;2023-03-14T03:13:22;4.60;;;4.60;;
23573;SDS011;11965;53.640;10.050;2023-03-14T03:15:53;4.53;;;4.47;;
23573;SDS011;11965;53.640;10.050;2023-03-14T03:18:20;4.76;;;4.70;;
23573;SDS011;11965;53.640;10.050;2023-03-14T03:20:47;4.84;;;4.84;;
23573;SDS011;11965;53.640;10.050;2023-03-14T03:23:14;4.85;;;4.85;;
23573;SDS011;11965;53.640;10.050;2023-03-14T03:25:41;4.68;;;4.68;;
23573;SDS011;11965;53.640;10.050;2023-03-14T03:28:08;4.73;;;4.72;;
23573;SDS011;11965;53.640;10.050;2023-03-14T03:30:39;4.82;;;4.75;;
23573;SDS011;11965;53.640;10.050;2023-03-14T03:33:07;4.99;;;4.95;;
23573;SDS011;11965;53.640;10.050;2023-03-14T03:35:34;4.87;;;4.87;;
23573;SDS011;11965;53.640;10.050;2023-03-14T03:38:01;4.81;;;4.81;;
23573;SDS011;11965;53.640;10.050;2023-03-14T03:40:29;5.16;;;5.16;;
23573;SDS011;11965;53.640;10.050;2023-03-14T03:42:56;5.20;;;5.20;;
23573;SDS011;11965;53.640;10.050;2023-03-14T03:45:23;4.78;;;4.78;;
23573;SDS011;11965;53.640;10.050;2023-03-14T03:47:55;5.03;;;5.03;;
23573;SDS011;11965;53.640;10.050;2023-03-14T03:50:22;4.61;;;4.61;;
23573;SDS011;11965;53.640;10.050;2023-03-14T03:52:49;4.25;;;4.25;;
23573;SDS011;11965;53.640;10.050;2023-03-14T03:55:16;4.41;;;4.41;;
23573;SDS011;11965;53.640;10.050;2023-03-14T03:57:44;4.68;;;4.68;;
23573;SDS011;11965;53.640;10.050;2023-03-14T04:00:11;4.45;;;4.45;;
23573;SDS011;11965;53.640;10.050;2023-03-14T04:02:41;4.41;;;4.41;;
23573;SDS011;11965;53.640;10.050;2023-03-14T04:05:13;4.21;;;4.21;;
23573;SDS011;11965;53.640;10.050;2023-03-14T04:07:47;4.22;;;4.22;;
23573;SDS011;11965;53.640;10.050;2023-03-14T04:10:19;4.00;;;4.00;;
23573;SDS011;11965;53.640;10.050;2023-03-14T04:13:00;4.01;;;4.01;;
23573;SDS011;11965;53.640;10.050;2023-03-14T04:15:29;4.17;;;4.17;;
23573;SDS011;11965;53.640;10.050;2023-03-14T04:18:00;4.11;;;4.11;;
23573;SDS011;11965;53.640;10.050;2023-03-14T04:20:28;4.39;;;4.39;;
23573;SDS011;11965;53.640;10.050;2023-03-14T04:22:55;4.26;;;4.26;;
23573;SDS011;11965;53.640;10.050;2023-03-14T04:25:22;4.33;;;4.33;;
23573;SDS011;11965;53.640;10.050;2023-03-14T04:27:54;4.63;;;4.63;;
23573;SDS011;11965;53.640;10.050;2023-03-14T04:30:24;4.36;;;4.36;;
23573;SDS011;11965;53.640;10.050;2023-03-14T04:33:00;4.32;;;4.32;;
23573;SDS011;11965;53.640;10.050;2023-03-14T04:35:31;4.76;;;4.76;;
23573;SDS011;11965;53.640;10.050;2023-03-14T04:38:01;4.43;;;4.43;;
23573;SDS011;11965;53.640;10.050;2023-03-14T04:40:31;4.77;;;4.77;;
23573;SDS011;11965;53.640;10.050;2023-03-14T04:43:02;4.86;;;4.86;;
23573;SDS011;11965;53.640;10.050;2023-03-14T04:45:30;5.00;;;5.00;;
23573;SDS011;11965;53.640;10.050;2023-03-14T04:47:59;4.76;;;4.76;;
23573;SDS011;11965;53.640;10.050;2023-03-14T04:50:26;5.06;;;5.06;;
23573;SDS011;11965;53.640;10.050;2023-03-14T04:52:54;5.05;;;5.05;;
23573;SDS011;11965;53.640;10.050;2023-03-14T04:55:21;4.93;;;4.93;;
23573;SDS011;11965;53.640;10.050;2023-03-14T04:57:48;4.89;;;4.89;;
23573;SDS011;11965;53.640;10.050;2023-03-14T05:00:15;4.56;;;4.56;;
23573;SDS011;11965;53.640;10.050;2023-03-14T05:02:52;3.39;;;3.39;;
23573;SDS011;11965;53.640;10.050;2023-03-14T05:05:22;2.88;;;2.88;;
23573;SDS011;11965;53.640;10.050;2023-03-14T05:08:13;2.27;;;2.27;;
23573;SDS011;11965;53.640;10.050;2023-03-14T05:10:51;2.21;;;2.21;;
23573;SDS011;11965;53.640;10.050;2023-03-14T05:13:38;1.93;;;1.93;;
23573;SDS011;11965;53.640;10.050;2023-03-14T05:16:40;1.68;;;1.67;;
23573;SDS011;11965;53.640;10.050;2023-03-14T05:19:14;1.60;;;1.57;;
23573;SDS011;11965;53.640;10.050;2023-03-14T05:22:00;1.90;;;1.86;;
23573;SDS011;11965;53.640;10.050;2023-03-14T05:24:47;1.93;;;1.87;;
23573;SDS011;11965;53.640;10.050;2023-03-14T05:27:40;2.18;;;2.09;;
23573;SDS011;11965;53.640;10.050;2023-03-14T05:30:27;2.19;;;2.12;;
23573;SDS011;11965;53.640;10.050;2023-03-14T05:33:09;2.06;;;2.03;;
23573;SDS011;11965;53.640;10.050;2023-03-14T05:35:56;2.21;;;2.21;;
23573;SDS011;11965;53.640;10.050;2023-03-14T05:38:41;2.20;;;2.20;;
23573;SDS011;11965;53.640;10.050;2023-03-14T05:41:32;2.18;;;2.18;;
23573;SDS011;11965;53.640;10.050;2023-03-14T05:44:26;2.57;;;2.57;;
23573;SDS011;11965;53.640;10.050;2023-03-14T05:47:25;2.80;;;2.80;;
23573;SDS011;11965;53.640;10.050;2023-03-14T05:50:18;2.77;;;2.77;;
23573;SDS011;11965;53.640;10.050;2023-03-14T05:53:04;3.50;;;3.50;;
23573;SDS011;11965;53.640;10.050;2023-03-14T05:55:51;3.55;;;3.55;;
23573;SDS011;11965;53.640;10.050;2023-03-14T05:58:46;3.66;;;3.66;;
23573;SDS011;11965;53.640;10.050;2023-03-14T06:01:23;3.68;;;3.68;;
23573;SDS011;11965;53.640;10.050;2023-03-14T06:04:16;3.91;;;3.91;;
23573;SDS011;11965;53.640;10.050;2023-03-14T06:06:48;3.85;;;3.85;;
23573;SDS011;11965;53.640;10.050;2023-03-14T06:09:15;4.19;;;4.19;;
23573;SDS011;11965;53.640;10.050;2023-03-14T06:11:45;4.23;;;4.23;;
23573;SDS011;11965;53.640;10.050;2023-03-14T06:14:13;4.50;;;4.50;;
23573;SDS011;11965;53.640;10.050;2023-03-14T06:16:44;4.61;;;4.61;;
23573;SDS011;11965;53.640;10.050;2023-03-14T06:19:13;5.16;;;5.16;;
23573;SDS011;11965;53.640;10.050;2023-03-14T06:21:41;5.01;;;5.01;;
23573;SDS011;11965;53.640;10.050;2023-03-14T06:24:08;5.55;;;5.55;;
23573;SDS011;11965;53.640;10.050;2023-03-14T06:26:40;5.92;;;5.92;;
23573;SDS011;11965;53.640;10.050;2023-03-14T06:29:08;6.18;;;6.18;;
23573;SDS011;11965;53.640;10.050;2023-03-14T06:31:37;6.35;;;6.35;;
23573;SDS011;11965;53.640;10.050;2023-03-14T06:34:06;6.66;;;6.66;;
23573;SDS011;11965;53.640;10.050;2023-03-14T06:36:33;6.94;;;6.94;;
23573;SDS011;11965;53.640;10.050;2023-03-14T06:39:03;6.79;;;6.79;;
23573;SDS011;11965;53.640;10.050;2023-03-14T06:41:32;6.74;;;6.74;;
23573;SDS011;11965;53.640;10.050;2023-03-14T06:44:00;6.58;;;6.58;;
23573;SDS011;11965;53.640;10.050;2023-03-14T06:46:26;6.63;;;6.63;;
23573;SDS011;11965;53.640;10.050;2023-03-14T06:48:55;7.09;;;7.09;;
23573;SDS011;11965;53.640;10.050;2023-03-14T06:51:22;6.54;;;6.54;;
23573;SDS011;11965;53.640;10.050;2023-03-14T06:53:49;6.80;;;6.80;;
23573;SDS011;11965;53.640;10.050;2023-03-14T06:56:19;6.68;;;6.68;;
23573;SDS011;11965;53.640;10.050;2023-03-14T06:58:46;6.77;;;6.77;;
23573;SDS011;11965;53.640;10.050;2023-03-14T07:01:17;6.88;;;6.88;;
23573;SDS011;11965;53.640;10.050;2023-03-14T07:03:49;6.76;;;6.76;;
23573;SDS011;11965;53.640;10.050;2023-03-14T07:06:17;6.97;;;6.97;;
23573;SDS011;11965;53.640;10.050;2023-03-14T07:08:45;6.50;;;6.50;;
23573;SDS011;11965;53.640;10.050;2023-03-14T07:11:14;6.32;;;6.32;;
23573;SDS011;11965;53.640;10.050;2023-03-14T07:13:41;5.78;;;5.78;;
23573;SDS011;11965;53.640;10.050;2023-03-14T07:16:09;5.25;;;5.25;;
23573;SDS011;11965;53.640;10.050;2023-03-14T07:18:36;5.48;;;5.48;;
23573;SDS011;11965;53.640;10.050;2023-03-14T07:21:05;5.12;;;5.12;;
23573;SDS011;11965;53.640;10.050;2023-03-14T07:23:36;4.57;;;4.57;;
23573;SDS011;11965;53.640;10.050;2023-03-14T07:26:03;4.58;;;4.58;;
23573;SDS011;11965;53.640;10.050;2023-03-14T07:28:33;4.01;;;4.01;;
23573;SDS011;11965;53.640;10.050;2023-03-14T07:31:06;3.98;;;3.98;;
23573;SDS011;11965;53.640;10.050;2023-03-14T07:33:33;3.56;;;3.56;;
23573;SDS011;11965;53.640;10.050;2023-03-14T07:36:01;3.97;;;3.95;;
23573;SDS011;11965;53.640;10.050;2023-03-14T07:38:29;3.30;;;3.28;;
23573;SDS011;11965;53.640;10.050;2023-03-14T07:41:16;3.13;;;3.12;;
23573;SDS011;11965;53.640;10.050;2023-03-14T07:44:06;3.36;;;3.24;;
23573;SDS011;11965;53.640;10.050;2023-03-14T07:46:33;3.21;;;3.02;;
23573;SDS011;11965;53.640;10.050;2023-03-14T07:49:00;3.62;;;3.35;;
23573;SDS011;11965;53.640;10.050;2023-03-14T07:51:30;3.68;;;3.48;;
23573;SDS011;11965;53.640;10.050;2023-03-14T07:53:56;3.69;;;3.60;;
23573;SDS011;11965;53.640;10.050;2023-03-14T07:56:25;3.86;;;3.86;;
23573;SDS011;11965;53.640;10.050;2023-03-14T07:58:52;4.02;;;3.98;;
23573;SDS011;11965;53.640;10.050;2023-03-14T08:01:18;3.61;;;3.61;;
23573;SDS011;11965;53.640;10.050;2023-03-14T08:03:45;3.88;;;3.88;;
23573;SDS011;11965;53.640;10.050;2023-03-14T08:06:12;3.65;;;3.65;;
23573;SDS011;11965;53.640;10.050;2023-03-14T08:08:39;3.66;;;3.66;;
23573;SDS011;11965;53.640;10.050;2023-03-14T08:11:06;3.14;;;3.14;;
23573;SDS011;11965;53.640;10.050;2023-03-14T08:13:36;3.21;;;3.21;;
23573;SDS011;11965;53.640;10.050;2023-03-14T08:16:03;3.21;;;3.19;;
23573;SDS011;11965;53.640;10.050;2023-03-14T08:18:31;2.78;;;2.78;;
23573;SDS011;11965;53.640;10.050;2023-03-14T08:20:58;2.39;;;2.39;;
23573;SDS011;11965;53.640;10.050;2023-03-14T08:23:25;2.70;;;2.68;;
23573;SDS011;11965;53.640;10.050;2023-03-14T08:25:52;2.34;;;2.33;;
23573;SDS011;11965;53.640;10.050;2023-03-14T08:28:19;2.57;;;2.57;;
23573;SDS011;11965;53.640;10.050;2023-03-14T08:30:47;2.36;;;2.32;;
23573;SDS011;11965;53.640;10.050;2023-03-14T08:33:14;2.61;;;2.53;;
23573;SDS011;11965;53.640;10.050;2023-03-14T08:35:41;2.94;;;2.89;;
23573;SDS011;11965;53.640;10.050;2023-03-14T08:38:08;2.87;;;2.86;;
23573;SDS011;11965;53.640;10.050;2023-03-14T08:40:35;2.94;;;2.92;;
23573;SDS011;11965;53.640;10.050;2023-03-14T08:43:02;2.75;;;2.75;;
23573;SDS011;11965;53.640;10.050;2023-03-14T08:45:29;2.60;;;2.60;;
23573;SDS011;11965;53.640;10.050;2023-03-14T08:47:58;2.89;;;2.89;;
23573;SDS011;11965;53.640;10.050;2023-03-14T08:50:25;2.87;;;2.87;;
23573;SDS011;11965;53.640;10.050;2023-03-14T08:52:52;2.74;;;2.71;;
23573;SDS011;11965;53.640;10.050;2023-03-14T08:55:19;2.74;;;2.72;;
23573;SDS011;11965;53.640;10.050;2023-03-14T08:57:45;2.94;;;2.94;;
23573;SDS011;11965;53.640;10.050;2023-03-14T09:00:13;3.39;;;3.39;;
23573;SDS011;11965;53.640;10.050;2023-03-14T09:02:40;3.42;;;3.35;;
23573;SDS011;11965;53.640;10.050;2023-03-14T09:05:09;3.63;;;3.55;;
23573;SDS011;11965;53.640;10.050;2023-03-14T09:07:37;3.39;;;3.39;;
23573;SDS011;11965;53.640;10.050;2023-03-14T09:10:04;3.49;;;3.49;;
23573;SDS011;11965;53.640;10.050;2023-03-14T09:12:32;3.45;;;3.45;;
23573;SDS011;11965;53.640;10.050;2023-03-14T09:14:59;3.70;;;3.70;;
23573;SDS011;11965;53.640;10.050;2023-03-14T09:17:27;4.23;;;4.23;;
23573;SDS011;11965;53.640;10.050;2023-03-14T09:19:54;3.91;;;3.91;;
23573;SDS011;11965;53.640;10.050;2023-03-14T09:22:22;3.86;;;3.86;;
23573;SDS011;11965;53.640;10.050;2023-03-14T09:24:50;4.07;;;4.07;;
23573;SDS011;11965;53.640;10.050;2023-03-14T09:27:17;4.40;;;4.40;;
23573;SDS011;11965;53.640;10.050;2023-03-14T09:29:44;4.64;;;4.64;;
23573;SDS011;11965;53.640;10.050;2023-03-14T09:32:11;4.78;;;4.78;;
23573;SDS011;11965;53.640;10.050;2023-03-14T09:34:38;5.01;;;5.01;;
23573;SDS011;11965;53.640;10.050;2023-03-14T09:37:04;4.72;;;4.72;;
23573;SDS011;11965;53.640;10.050;2023-03-14T09:39:33;5.18;;;5.18;;
23573;SDS011;11965;53.640;10.050;2023-03-14T09:42:01;5.06;;;5.06;;
23573;SDS011;11965;53.640;10.050;2023-03-14T09:44:33;4.93;;;4.93;;
23573;SDS011;11965;53.640;10.050;2023-03-14T09:47:06;5.01;;;5.01;;
23573;SDS011;11965;53.640;10.050;2023-03-14T09:49:39;5.14;;;5.14;;
23573;SDS011;11965;53.640;10.050;2023-03-14T09:52:10;4.43;;;4.43;;
23573;SDS011;11965;53.640;10.050;2023-03-14T09:54:49;4.55;;;4.55;;
23573;SDS011;11965;53.640;10.050;2023-03-14T09:57:19;2.45;;;2.45;;
23573;SDS011;11965;53.640;10.050;2023-03-14T09:59:50;1.25;;;1.25;;
23573;SDS011;11965;53.640;10.050;2023-03-14T10:02:22;1.29;;;1.29;;
23573;SDS011;11965;53.640;10.050;2023-03-14T10:04:51;1.33;;;1.33;;
23573;SDS011;11965;53.640;10.050;2023-03-14T10:07:21;1.04;;;1.04;;
23573;SDS011;11965;53.640;10.050;2023-03-14T10:09:55;1.17;;;1.17;;
23573;SDS011;11965;53.640;10.050;2023-03-14T10:12:30;1.18;;;1.18;;
23573;SDS011;11965;53.640;10.050;2023-03-14T10:14:58;1.17;;;1.15;;
23573;SDS011;11965;53.640;10.050;2023-03-14T10:17:37;1.24;;;1.22;;
23573;SDS011;11965;53.640;10.050;2023-03-14T10:20:07;0.93;;;0.91;;
23573;SDS011;11965;53.640;10.050;2023-03-14T10:22:52;0.90;;;0.88;;
23573;SDS011;11965;53.640;10.050;2023-03-14T10:25:26;1.10;;;1.07;;
23573;SDS011;11965;53.640;10.050;2023-03-14T10:27:54;1.09;;;1.06;;
23573;SDS011;11965;53.640;10.050;2023-03-14T10:30:33;1.02;;;0.99;;
23573;SDS011;11965;53.640;10.050;2023-03-14T10:33:11;1.03;;;1.00;;
23573;SDS011;11965;53.640;10.050;2023-03-14T10:35:46;1.05;;;1.01;;
23573;SDS011;11965;53.640;10.050;2023-03-14T10:38:23;0.87;;;0.84;;
23573;SDS011;11965;53.640;10.050;2023-03-14T10:40:55;0.75;;;0.71;;
23573;SDS011;11965;53.640;10.050;2023-03-14T10:43:24;0.89;;;0.84;;
23573;SDS011;11965;53.640;10.050;2023-03-14T10:45:54;0.77;;;0.74;;
23573;SDS011;11965;53.640;10.050;2023-03-14T10:48:25;0.71;;;0.67;;
23573;SDS011;11965;53.640;10.050;2023-03-14T10:51:01;0.62;;;0.58;;
23573;SDS011;11965;53.640;10.050;2023-03-14T10:53:39;0.71;;;0.67;;
23573;SDS011;11965;53.640;10.050;2023-03-14T10:56:12;0.97;;;0.91;;
23573;SDS011;11965;53.640;10.050;2023-03-14T10:58:40;0.74;;;0.70;;
23573;SDS011;11965;53.640;10.050;2023-03-14T11:01:14;0.68;;;0.64;;
23573;SDS011;11965;53.640;10.050;2023-03-14T11:03:57;0.66;;;0.62;;
23573;SDS011;11965;53.640;10.050;2023-03-14T11:06:34;0.74;;;0.69;;
23573;SDS011;11965;53.640;10.050;2023-03-14T11:09:10;0.58;;;0.54;;
23573;SDS011;11965;53.640;10.050;2023-03-14T11:11:49;0.70;;;0.65;;
23573;SDS011;11965;53.640;10.050;2023-03-14T11:14:18;0.93;;;0.86;;
23573;SDS011;11965;53.640;10.050;2023-03-14T11:16:56;0.89;;;0.81;;
23573;SDS011;11965;53.640;10.050;2023-03-14T11:19:38;0.75;;;0.68;;
23573;SDS011;11965;53.640;10.050;2023-03-14T11:22:18;0.85;;;0.76;;
23573;SDS011;11965;53.640;10.050;2023-03-14T11:24:55;1.11;;;0.99;;
23573;SDS011;11965;53.640;10.050;2023-03-14T11:27:36;1.10;;;0.96;;
23573;SDS011;11965;53.640;10.050;2023-03-14T11:30:15;1.35;;;1.15;;
23573;SDS011;11965;53.640;10.050;2023-03-14T11:32:46;1.45;;;1.19;;
23573;SDS011;11965;53.640;10.050;2023-03-14T11:35:23;1.53;;;1.21;;
23573;SDS011;11965;53.640;10.050;2023-03-14T11:37:55;1.81;;;1.41;;
23573;SDS011;11965;53.640;10.050;2023-03-14T11:40:33;1.59;;;1.23;;
23573;SDS011;11965;53.640;10.050;2023-03-14T11:43:05;1.67;;;1.27;;
23573;SDS011;11965;53.640;10.050;2023-03-14T11:45:41;1.94;;;1.48;;
23573;SDS011;11965;53.640;10.050;2023-03-14T11:48:13;1.79;;;1.35;;
23573;SDS011;11965;53.640;10.050;2023-03-14T11:50:49;2.15;;;1.59;;
23573;SDS011;11965;53.640;10.050;2023-03-14T11:53:19;2.00;;;1.49;;
23573;SDS011;11965;53.640;10.050;2023-03-14T11:55:59;2.03;;;1.52;;
23573;SDS011;11965;53.640;10.050;2023-03-14T11:58:29;2.03;;;1.52;;
23573;SDS011;11965;53.640;10.050;2023-03-14T12:01:01;2.19;;;1.61;;
23573;SDS011;11965;53.640;10.050;2023-03-14T12:03:35;2.19;;;1.60;;
23573;SDS011;11965;53.640;10.050;2023-03-14T12:06:13;2.46;;;1.77;;
23573;SDS011;11965;53.640;10.050;2023-03-14T12:08:48;2.75;;;1.97;;
23573;SDS011;11965;53.640;10.050;2023-03-14T12:11:24;2.81;;;1.98;;
23573;SDS011;11965;53.640;10.050;2023-03-14T12:14:00;3.29;;;2.28;;
23573;SDS011;11965;53.640;10.050;2023-03-14T12:16:32;3.31;;;2.24;;
23573;SDS011;11965;53.640;10.050;2023-03-14T12:21:55;3.13;;;2.10;;
23573;SDS011;11965;53.640;10.050;2023-03-14T12:24:28;4.06;;;2.72;;
23573;SDS011;11965;53.640;10.050;2023-03-14T12:26:59;4.19;;;2.78;;
23573;SDS011;11965;53.640;10.050;2023-03-14T12:29:28;3.98;;;2.67;;
23573;SDS011;11965;53.640;10.050;2023-03-14T12:32:06;4.28;;;2.96;;
23573;SDS011;11965;53.640;10.050;2023-03-14T12:34:49;3.87;;;2.76;;
23573;SDS011;11965;53.640;10.050;2023-03-14T12:37:19;4.20;;;2.98;;
23573;SDS011;11965;53.640;10.050;2023-03-14T12:40:01;3.96;;;2.76;;
23573;SDS011;11965;53.640;10.050;2023-03-14T12:42:44;5.21;;;3.49;;
23573;SDS011;11965;53.640;10.050;2023-03-14T12:45:25;4.44;;;2.94;;
23573;SDS011;11965;53.640;10.050;2023-03-14T12:50:42;5.16;;;3.38;;
23573;SDS011;11965;53.640;10.050;2023-03-14T12:53:24;4.79;;;3.13;;
23573;SDS011;11965;53.640;10.050;2023-03-14T12:56:12;4.63;;;3.04;;
23573;SDS011;11965;53.640;10.050;2023-03-14T12:58:54;5.29;;;3.44;;
23573;SDS011;11965;53.640;10.050;2023-03-14T13:01:37;5.49;;;3.61;;
23573;SDS011;11965;53.640;10.050;2023-03-14T13:04:19;4.65;;;3.07;;
23573;SDS011;11965;53.640;10.050;2023-03-14T13:06:56;5.77;;;3.78;;
23573;SDS011;11965;53.640;10.050;2023-03-14T13:12:28;6.02;;;3.92;;
23573;SDS011;11965;53.640;10.050;2023-03-14T13:15:00;5.89;;;3.82;;
23573;SDS011;11965;53.640;10.050;2023-03-14T13:17:41;5.43;;;3.64;;
23573;SDS011;11965;53.640;10.050;2023-03-14T13:20:12;5.51;;;3.73;;
23573;SDS011;11965;53.640;10.050;2023-03-14T13:22:46;5.79;;;3.91;;
23573;SDS011;11965;53.640;10.050;2023-03-14T13:25:14;5.78;;;3.90;;
23573;SDS011;11965;53.640;10.050;2023-03-14T13:27:42;7.44;;;4.82;;
23573;SDS011;11965;53.640;10.050;2023-03-14T13:30:16;7.56;;;4.79;;
23573;SDS011;11965;53.640;10.050;2023-03-14T13:32:48;6.98;;;4.42;;
23573;SDS011;11965;53.640;10.050;2023-03-14T13:35:17;6.64;;;4.24;;
23573;SDS011;11965;53.640;10.050;2023-03-14T13:37:46;7.37;;;4.68;;
23573;SDS011;11965;53.640;10.050;2023-03-14T13:40:18;7.35;;;4.55;;
23573;SDS011;11965;53.640;10.050;2023-03-14T13:42:47;5.48;;;3.34;;
23573;SDS011;11965;53.640;10.050;2023-03-14T13:45:14;5.78;;;3.63;;
23573;SDS011;11965;53.640;10.050;2023-03-14T13:47:42;5.54;;;3.61;;
23573;SDS011;11965;53.640;10.050;2023-03-14T13:50:18;4.97;;;3.27;;
23573;SDS011;11965;53.640;10.050;2023-03-14T13:52:47;5.05;;;3.30;;
23573;SDS011;11965;53.640;10.050;2023-03-14T13:55:22;5.71;;;3.70;;
23573;SDS011;11965;53.640;10.050;2023-03-14T13:57:49;5.31;;;3.41;;
23573;SDS011;11965;53.640;10.050;2023-03-14T14:00:20;5.91;;;3.78;;
23573;SDS011;11965;53.640;10.050;2023-03-14T14:02:52;5.29;;;3.47;;
23573;SDS011;11965;53.640;10.050;2023-03-14T14:05:22;4.95;;;3.27;;
23573;SDS011;11965;53.640;10.050;2023-03-14T14:07:54;4.95;;;3.30;;
23573;SDS011;11965;53.640;10.050;2023-03-14T14:10:21;5.39;;;3.59;;
23573;SDS011;11965;53.640;10.050;2023-03-14T14:12:49;5.25;;;3.48;;
23573;SDS011;11965;53.640;10.050;2023-03-14T14:15:25;5.40;;;3.60;;
23573;SDS011;11965;53.640;10.050;2023-03-14T14:17:55;4.98;;;3.35;;
23573;SDS011;11965;53.640;10.050;2023-03-14T14:20:29;4.84;;;3.23;;
23573;SDS011;11965;53.640;10.050;2023-03-14T14:23:00;5.25;;;3.44;;
23573;SDS011;11965;53.640;10.050;2023-03-14T14:25:29;4.66;;;3.06;;
23573;SDS011;11965;53.640;10.050;2023-03-14T14:27:58;4.90;;;3.27;;
23573;SDS011;11965;53.640;10.050;2023-03-14T14:30:27;4.62;;;3.08;;
23573;SDS011;11965;53.640;10.050;2023-03-14T14:35:53;5.28;;;3.48;;
23573;SDS011;11965;53.640;10.050;2023-03-14T14:38:22;5.61;;;3.72;;
23573;SDS011;11965;53.640;10.050;2023-03-14T14:40:50;5.12;;;3.42;;
23573;SDS011;11965;53.640;10.050;2023-03-14T14:43:21;4.86;;;3.23;;
23573;SDS011;11965;53.640;10.050;2023-03-14T14:45:51;5.09;;;3.27;;
23573;SDS011;11965;53.640;10.050;2023-03-14T14:48:21;4.96;;;3.17;;
23573;SDS011;11965;53.640;10.050;2023-03-14T14:50:58;3.79;;;2.42;;
23573;SDS011;11965;53.640;10.050;2023-03-14T14:53:28;4.28;;;2.75;;
23573;SDS011;11965;53.640;10.050;2023-03-14T14:55:57;3.92;;;2.53;;
23573;SDS011;11965;53.640;10.050;2023-03-14T14:58:26;4.82;;;3.16;;
23573;SDS011;11965;53.640;10.050;2023-03-14T15:00:56;3.32;;;2.22;;
23573;SDS011;11965;53.640;10.050;2023-03-14T15:03:31;3.40;;;2.28;;
23573;SDS011;11965;53.640;10.050;2023-03-14T15:06:01;3.37;;;2.25;;
23573;SDS011;11965;53.640;10.050;2023-03-14T15:08:29;4.08;;;2.68;;
23573;SDS011;11965;53.640;10.050;2023-03-14T15:10:57;3.95;;;2.60;;